Terminal Aerodrome Forecast
Issued by NWS Quad Cities IA IL

Home | Current Version | Previous Version | Text Only | Print | Product List | Glossary On
Versions: 1 2 3 4 5 6 7 8 9 10 11 12 13 14 15 16 17 18
945
FTUS43 KDVN 250252 AAA
TAFMLI
TAF AMD
KMLI 250252Z 2503/2524 17003KT P6SM SCT250
     FM251600 19006KT 6SM -SHRA BKN040
     FM252000 20010KT P6SM BKN050=

USA.gov is the U.S. government's official web portal to all federal, state and local government web resources and services.